Time;durP1;ratioP1;P1;durP2;ratioP2;P2;SDS_P1;SDS_P2;PMS_P1;PMS_P2;Temp;Humidity;BMP_temperature;BMP_pressure;BME280_temperature;BME280_humidity;BME280_pressure;Samples;Min_cycle;Max_cycle;Signal;HPM_P1;HPM_P2
2023/03/29 00:00:36;;;;;;;12.15;2.65;;;;;;;;;;5089921;28;20051;-75
2023/03/29 00:03:07;;;;;;;7.90;2.75;;;;;;;;;;5107962;28;20058;-75
2023/03/29 00:05:39;;;;;;;9.20;2.70;;;;;;;;;;5107952;28;20144;-75
2023/03/29 00:08:13;;;;;;;16.27;3.00;;;;;;;;;;5107386;28;20572;-75
2023/03/29 00:10:48;;;;;;;12.75;2.78;;;;;;;;;;5106517;28;20399;-76
2023/03/29 00:13:19;;;;;;;15.82;2.83;;;;;;;;;;5108339;28;20051;-75
2023/03/29 00:15:50;;;;;;;7.25;2.53;;;;;;;;;;5107826;28;20054;-75
2023/03/29 00:18:20;;;;;;;8.88;2.50;;;;;;;;;;5089466;28;20505;-75
2023/03/29 00:20:58;;;;;;;9.13;2.58;;;;;;;;;;5106581;28;20047;-75
2023/03/29 00:23:29;;;;;;;10.40;2.70;;;;;;;;;;5098243;28;20051;-79
2023/03/29 00:26:00;;;;;;;9.45;2.75;;;;;;;;;;5095823;28;20050;-78
2023/03/29 00:28:34;;;;;;;11.68;2.97;;;;;;;;;;5101571;28;20498;-79
2023/03/29 00:31:12;;;;;;;9.85;3.10;;;;;;;;;;5107336;28;20516;-76
2023/03/29 00:33:45;;;;;;;17.77;3.42;;;;;;;;;;5088198;28;20048;-78
2023/03/29 00:36:15;;;;;;;12.70;3.10;;;;;;;;;;5089580;28;20054;-77
2023/03/29 00:38:45;;;;;;;16.80;2.70;;;;;;;;;;5087701;28;20060;-76
2023/03/29 00:41:17;;;;;;;13.30;2.40;;;;;;;;;;5088326;28;20540;-80
2023/03/29 00:43:55;;;;;;;13.93;3.08;;;;;;;;;;5106073;28;20050;-78
2023/03/29 00:46:27;;;;;;;15.65;3.10;;;;;;;;;;5088763;28;20051;-77
2023/03/29 00:49:06;;;;;;;18.00;3.17;;;;;;;;;;5088283;28;20048;-79
2023/03/29 00:51:40;;;;;;;9.70;2.85;;;;;;;;;;5087017;28;20652;-77
2023/03/29 00:54:17;;;;;;;12.48;2.63;;;;;;;;;;5106989;28;20058;-78
2023/03/29 00:56:50;;;;;;;14.73;3.00;;;;;;;;;;5107320;28;20502;-78
2023/03/29 00:59:27;;;;;;;14.00;3.53;;;;;;;;;;5088756;28;20059;-76
2023/03/29 01:02:01;;;;;;;11.18;2.92;;;;;;;;;;5107114;28;20048;-79
2023/03/29 01:04:59;;;;;;;17.15;2.78;;;;;;;;;;5106073;28;20051;-77
2023/03/29 01:07:56;;;;;;;8.70;2.50;;;;;;;;;;5105885;28;20054;-77
2023/03/29 01:10:37;;;;;;;20.33;3.50;;;;;;;;;;5088086;28;20043;-77
2023/03/29 01:13:15;;;;;;;14.75;3.15;;;;;;;;;;5088230;28;20055;-76
2023/03/29 01:15:47;;;;;;;8.23;3.10;;;;;;;;;;5088399;28;20510;-80
2023/03/29 01:18:20;;;;;;;10.45;3.17;;;;;;;;;;5107083;28;20430;-77
2023/03/29 01:21:28;;;;;;;10.57;2.95;;;;;;;;;;5106638;28;20683;-78
2023/03/29 01:24:25;;;;;;;14.07;2.75;;;;;;;;;;5106871;28;20062;-77
2023/03/29 01:27:33;;;;;;;13.75;2.97;;;;;;;;;;5106456;28;20060;-77
2023/03/29 01:30:18;;;;;;;11.23;2.95;;;;;;;;;;5106863;28;20051;-76
2023/03/29 01:33:00;;;;;;;8.82;2.90;;;;;;;;;;5102794;28;20043;-78
2023/03/29 01:35:56;;;;;;;15.20;3.00;;;;;;;;;;5095061;28;20538;-80
2023/03/29 01:38:30;;;;;;;9.77;2.40;;;;;;;;;;5097062;28;20058;-78
2023/03/29 01:41:02;;;;;;;12.77;3.15;;;;;;;;;;5077437;28;20059;-79
2023/03/29 01:43:45;;;;;;;10.68;3.20;;;;;;;;;;5095626;28;20051;-77
2023/03/29 01:46:25;;;;;;;8.77;2.45;;;;;;;;;;5095660;28;20116;-79
2023/03/29 01:49:14;;;;;;;9.68;2.78;;;;;;;;;;5096369;28;20044;-76
2023/03/29 01:51:58;;;;;;;7.32;2.63;;;;;;;;;;5096932;28;20391;-80
2023/03/29 01:54:37;;;;;;;10.70;2.67;;;;;;;;;;5077888;28;20051;-82
2023/03/29 01:57:11;;;;;;;8.50;3.10;;;;;;;;;;5094635;28;20036;-79
2023/03/29 01:59:44;;;;;;;11.98;2.72;;;;;;;;;;5094647;28;20050;-79
2023/03/29 02:02:19;;;;;;;10.75;2.97;;;;;;;;;;5095752;28;20047;-76
2023/03/29 02:04:53;;;;;;;12.15;3.17;;;;;;;;;;5079127;28;20529;-76
2023/03/29 02:07:29;;;;;;;10.90;2.47;;;;;;;;;;5098544;28;20036;-79
2023/03/29 02:10:00;;;;;;;7.93;2.67;;;;;;;;;;5087855;28;20050;-80
2023/03/29 02:12:31;;;;;;;6.40;2.53;;;;;;;;;;5110567;28;20522;-79
2023/03/29 02:15:03;;;;;;;10.23;3.20;;;;;;;;;;5090886;28;20058;-76
2023/03/29 02:17:34;;;;;;;6.32;3.22;;;;;;;;;;5092325;28;20529;-78
2023/03/29 02:20:19;;;;;;;5.53;2.58;;;;;;;;;;5091278;28;20048;-78
2023/03/29 02:23:13;;;;;;;8.98;2.97;;;;;;;;;;5091273;28;20055;-77
2023/03/29 02:25:44;;;;;;;8.82;2.58;;;;;;;;;;5091258;28;20044;-77
2023/03/29 02:28:15;;;;;;;8.30;3.17;;;;;;;;;;5091045;28;20058;-79
2023/03/29 02:31:04;;;;;;;14.15;3.00;;;;;;;;;;5090785;28;20391;-78
2023/03/29 02:34:01;;;;;;;14.70;2.92;;;;;;;;;;5091353;28;20052;-78
2023/03/29 02:36:53;;;;;;;10.98;3.28;;;;;;;;;;5091494;28;20066;-77
2023/03/29 02:39:30;;;;;;;4.88;2.83;;;;;;;;;;5090722;28;20063;-78
2023/03/29 02:42:02;;;;;;;12.52;3.00;;;;;;;;;;5091577;28;20540;-77
2023/03/29 02:44:38;;;;;;;6.15;2.50;;;;;;;;;;5090786;28;20059;-77
2023/03/29 02:47:26;;;;;;;5.65;2.58;;;;;;;;;;5090606;28;20059;-75
2023/03/29 02:49:59;;;;;;;6.85;2.97;;;;;;;;;;5090816;28;20514;-78
2023/03/29 02:52:38;;;;;;;7.47;2.55;;;;;;;;;;5109466;28;20051;-77
2023/03/29 02:55:16;;;;;;;11.43;2.97;;;;;;;;;;5109702;28;20048;-77
2023/03/29 02:57:46;;;;;;;11.57;3.10;;;;;;;;;;5091280;28;20544;-76
2023/03/29 03:00:21;;;;;;;10.25;3.03;;;;;;;;;;5109278;28;20050;-79
2023/03/29 03:02:53;;;;;;;11.02;3.00;;;;;;;;;;5108935;28;20052;-77
2023/03/29 03:05:25;;;;;;;10.07;3.50;;;;;;;;;;5090501;28;20062;-77
2023/03/29 03:07:57;;;;;;;10.73;3.17;;;;;;;;;;5090633;28;20051;-78
2023/03/29 03:10:27;;;;;;;8.70;3.00;;;;;;;;;;5109007;28;20418;-79
2023/03/29 03:12:58;;;;;;;10.02;3.30;;;;;;;;;;5090244;28;20526;-77
2023/03/29 03:15:34;;;;;;;9.75;3.00;;;;;;;;;;5088779;28;20415;-79
2023/03/29 03:18:05;;;;;;;9.02;3.28;;;;;;;;;;5089650;28;20043;-76
2023/03/29 03:20:35;;;;;;;12.45;4.07;;;;;;;;;;5109416;28;20042;-78
2023/03/29 03:23:08;;;;;;;12.23;3.30;;;;;;;;;;5090118;28;20048;-76
2023/03/29 03:25:39;;;;;;;9.80;3.17;;;;;;;;;;5089980;28;20074;-76
2023/03/29 03:28:10;;;;;;;7.07;2.65;;;;;;;;;;5108562;28;20043;-76
2023/03/29 03:30:40;;;;;;;9.75;3.17;;;;;;;;;;5109186;28;20078;-77
2023/03/29 03:33:27;;;;;;;15.43;3.83;;;;;;;;;;5108791;28;20055;-77
2023/03/29 03:36:30;;;;;;;7.65;2.63;;;;;;;;;;5089345;28;20054;-78
2023/03/29 03:39:05;;;;;;;11.25;3.47;;;;;;;;;;5089487;28;20052;-79
2023/03/29 03:41:36;;;;;;;12.43;3.45;;;;;;;;;;5089534;28;20062;-79
2023/03/29 03:44:05;;;;;;;14.32;3.28;;;;;;;;;;5089853;28;20054;-77
2023/03/29 03:46:37;;;;;;;7.30;3.20;;;;;;;;;;5090126;28;20047;-80
2023/03/29 03:49:08;;;;;;;12.05;3.92;;;;;;;;;;5089416;28;20054;-79
2023/03/29 03:51:43;;;;;;;10.88;3.78;;;;;;;;;;5107778;28;20540;-77
2023/03/29 03:54:17;;;;;;;8.18;3.00;;;;;;;;;;5091436;28;20130;-78
2023/03/29 03:57:07;;;;;;;8.90;3.40;;;;;;;;;;5093428;28;20500;-77
2023/03/29 03:59:46;;;;;;;7.65;3.15;;;;;;;;;;5089549;28;20420;-76
2023/03/29 04:02:26;;;;;;;8.32;3.60;;;;;;;;;;5089823;28;20055;-79
2023/03/29 04:05:01;;;;;;;11.77;3.90;;;;;;;;;;5088733;28;20055;-78
2023/03/29 04:07:36;;;;;;;6.70;3.22;;;;;;;;;;5088886;28;20054;-78
2023/03/29 04:10:25;;;;;;;10.70;4.22;;;;;;;;;;5112852;28;20433;-77
2023/03/29 04:13:22;;;;;;;10.45;3.13;;;;;;;;;;5091047;28;20055;-80
2023/03/29 04:16:11;;;;;;;15.70;3.55;;;;;;;;;;5107938;28;20048;-79
2023/03/29 04:18:42;;;;;;;8.18;3.72;;;;;;;;;;5089441;28;20410;-78
2023/03/29 04:21:14;;;;;;;16.70;3.50;;;;;;;;;;5089014;28;20055;-77
2023/03/29 04:23:48;;;;;;;12.48;3.25;;;;;;;;;;5088868;28;20550;-78
2023/03/29 04:26:21;;;;;;;8.27;4.03;;;;;;;;;;5088601;28;20055;-76
2023/03/29 04:28:57;;;;;;;6.63;3.00;;;;;;;;;;5088800;28;20058;-77
2023/03/29 04:31:45;;;;;;;;;;;;;;;;;;5088977;28;20553;-80
2023/03/29 04:34:40;;;;;;;14.60;3.40;;;;;;;;;;5089313;28;19919;-79
2023/03/29 04:37:11;;;;;;;12.25;3.60;;;;;;;;;;5107405;28;20491;-79
2023/03/29 04:39:41;;;;;;;5.80;3.00;;;;;;;;;;5107277;28;20078;-77
2023/03/29 04:42:14;;;;;;;8.38;3.30;;;;;;;;;;5088036;28;20055;-77
2023/03/29 04:44:46;;;;;;;8.73;3.97;;;;;;;;;;5073178;28;20511;-79
2023/03/29 04:47:23;;;;;;;6.70;3.38;;;;;;;;;;5088304;28;20510;-78
2023/03/29 04:50:00;;;;;;;9.43;4.10;;;;;;;;;;5088526;28;20048;-76
2023/03/29 04:52:38;;;;;;;7.80;3.40;;;;;;;;;;5088511;28;20522;-75
2023/03/29 04:55:10;;;;;;;7.38;3.17;;;;;;;;;;5088157;28;20051;-77
2023/03/29 04:57:50;;;;;;;8.40;3.65;;;;;;;;;;5088445;28;20059;-79
2023/03/29 05:00:26;;;;;;;10.70;3.95;;;;;;;;;;5107045;28;20040;-77
2023/03/29 05:03:18;;;;;;;6.60;3.22;;;;;;;;;;5106970;28;20079;-77
2023/03/29 05:06:07;;;;;;;12.85;3.92;;;;;;;;;;5088122;28;20062;-77
2023/03/29 05:08:40;;;;;;;9.35;3.22;;;;;;;;;;5088716;28;20054;-77
2023/03/29 05:11:23;;;;;;;8.02;3.55;;;;;;;;;;5088072;28;20416;-78
2023/03/29 05:13:59;;;;;;;13.77;3.30;;;;;;;;;;5088464;28;20052;-77
2023/03/29 05:16:33;;;;;;;10.23;3.70;;;;;;;;;;5089817;28;20047;-79
2023/03/29 05:19:04;;;;;;;7.63;3.85;;;;;;;;;;5107259;28;20054;-76
2023/03/29 05:21:38;;;;;;;15.85;3.78;;;;;;;;;;5088110;28;20055;-77
2023/03/29 05:24:15;;;;;;;;;;;;;;;;;;5089006;28;20048;-79
2023/03/29 05:26:55;;;;;;;8.73;3.13;;;;;;;;;;5087953;28;19920;-76
2023/03/29 05:29:28;;;;;;;7.45;3.80;;;;;;;;;;5088419;28;20055;-77
2023/03/29 05:32:12;;;;;;;9.52;2.92;;;;;;;;;;5087831;28;20060;-77
2023/03/29 05:34:43;;;;;;;6.53;3.17;;;;;;;;;;5087858;28;20067;-79
2023/03/29 05:37:14;;;;;;;7.80;2.88;;;;;;;;;;5087394;28;20055;-75
2023/03/29 05:39:53;;;;;;;7.82;2.75;;;;;;;;;;5108925;27;20048;-77
2023/03/29 05:42:42;;;;;;;6.85;3.17;;;;;;;;;;5092076;28;20044;-77
2023/03/29 05:45:13;;;;;;;10.95;3.67;;;;;;;;;;5092201;28;20059;-79
2023/03/29 05:47:44;;;;;;;9.68;2.85;;;;;;;;;;5110799;28;20413;-76
2023/03/29 05:50:14;;;;;;;7.68;3.00;;;;;;;;;;5091492;28;20058;-76
2023/03/29 05:52:44;;;;;;;7.70;3.03;;;;;;;;;;5091667;28;20414;-80
2023/03/29 05:55:14;;;;;;;9.68;3.40;;;;;;;;;;5092292;28;20051;-79
2023/03/29 05:57:45;;;;;;;8.82;3.15;;;;;;;;;;5091526;28;20521;-79
2023/03/29 06:00:20;;;;;;;7.32;3.15;;;;;;;;;;5091308;28;20513;-80
2023/03/29 06:03:01;;;;;;;10.73;3.60;;;;;;;;;;5091649;28;20055;-79
2023/03/29 06:05:48;;;;;;;6.38;3.25;;;;;;;;;;5091658;28;20062;-78
2023/03/29 06:08:21;;;;;;;10.07;3.22;;;;;;;;;;5091960;28;20067;-77
2023/03/29 06:11:23;;;;;;;9.60;3.30;;;;;;;;;;5078540;28;20047;-78
2023/03/29 06:14:13;;;;;;;8.18;3.72;;;;;;;;;;5091043;28;20170;-80
2023/03/29 06:16:51;;;;;;;7.13;3.13;;;;;;;;;;5091957;28;20047;-76
2023/03/29 06:19:23;;;;;;;6.38;3.28;;;;;;;;;;5075630;28;20047;-78
2023/03/29 06:21:55;;;;;;;8.65;3.33;;;;;;;;;;5091349;28;20050;-76
2023/03/29 06:24:28;;;;;;;9.70;3.50;;;;;;;;;;5091349;28;20059;-78
2023/03/29 06:27:06;;;;;;;9.52;3.40;;;;;;;;;;5091454;28;20067;-79
2023/03/29 06:29:37;;;;;;;7.28;2.90;;;;;;;;;;5090934;28;20062;-78
2023/03/29 06:32:09;;;;;;;5.50;3.42;;;;;;;;;;5090739;28;20066;-76
2023/03/29 06:34:48;;;;;;;6.85;3.13;;;;;;;;;;5091536;28;20047;-77
2023/03/29 06:37:40;;;;;;;6.82;3.22;;;;;;;;;;5091352;28;20527;-77
2023/03/29 06:40:33;;;;;;;5.50;3.00;;;;;;;;;;5087815;28;20048;-77
2023/03/29 06:43:05;;;;;;;5.28;3.03;;;;;;;;;;5089594;28;20051;-78
2023/03/29 06:45:58;;;;;;;8.98;3.22;;;;;;;;;;5088945;28;20044;-79
2023/03/29 06:48:42;;;;;;;6.72;3.50;;;;;;;;;;5087381;28;20047;-77
2023/03/29 06:51:14;;;;;;;7.82;3.50;;;;;;;;;;5087093;28;20048;-77
2023/03/29 06:53:45;;;;;;;13.23;3.45;;;;;;;;;;5087714;28;20064;-77
2023/03/29 06:56:16;;;;;;;9.00;2.97;;;;;;;;;;5086836;28;20052;-77
2023/03/29 06:58:54;;;;;;;5.35;3.00;;;;;;;;;;5086869;28;20518;-76
2023/03/29 07:01:36;;;;;;;7.15;2.95;;;;;;;;;;5086672;28;20052;-80
2023/03/29 07:04:17;;;;;;;8.63;3.08;;;;;;;;;;5086921;28;20695;-77
2023/03/29 07:07:18;;;;;;;10.25;3.95;;;;;;;;;;5087543;28;20056;-79
2023/03/29 07:09:54;;;;;;;7.50;3.30;;;;;;;;;;5087241;28;20094;-76
2023/03/29 07:12:58;;;;;;;7.85;3.17;;;;;;;;;;5054657;28;20595;-78
2023/03/29 07:15:30;;;;;;;6.00;3.00;;;;;;;;;;5086998;28;20040;-77
2023/03/29 07:18:26;;;;;;;4.80;2.78;;;;;;;;;;5064238;28;20454;-76
2023/03/29 07:20:56;;;;;;;6.35;3.10;;;;;;;;;;5088846;28;20040;-77
2023/03/29 07:23:27;;;;;;;6.88;2.67;;;;;;;;;;5088709;28;20040;-77
2023/03/29 07:25:58;;;;;;;12.93;3.65;;;;;;;;;;5086670;28;20056;-77
2023/03/29 07:28:29;;;;;;;7.28;3.10;;;;;;;;;;5088419;28;20047;-76
2023/03/29 07:31:06;;;;;;;6.82;2.72;;;;;;;;;;5086302;28;20044;-77
2023/03/29 07:33:42;;;;;;;6.10;3.42;;;;;;;;;;5086054;28;20052;-80
2023/03/29 07:36:14;;;;;;;5.65;2.53;;;;;;;;;;5085628;28;20047;-77
2023/03/29 07:38:45;;;;;;;4.53;2.53;;;;;;;;;;5087012;28;20055;-76
2023/03/29 07:41:20;;;;;;;5.68;3.00;;;;;;;;;;5085667;28;20055;-76
2023/03/29 07:43:56;;;;;;;6.50;2.63;;;;;;;;;;5086660;28;20060;-79
2023/03/29 07:46:28;;;;;;;9.77;2.92;;;;;;;;;;5086045;28;20059;-76
2023/03/29 07:48:59;;;;;;;8.90;2.78;;;;;;;;;;5086302;28;20059;-78
2023/03/29 07:51:29;;;;;;;8.55;3.40;;;;;;;;;;5085911;28;20047;-77
2023/03/29 07:54:06;;;;;;;6.72;2.90;;;;;;;;;;5085973;28;20059;-78
2023/03/29 07:57:12;;;;;;;4.65;2.60;;;;;;;;;;5086847;28;20064;-76
2023/03/29 07:59:48;;;;;;;6.50;3.13;;;;;;;;;;5085537;28;20048;-77
2023/03/29 08:02:23;;;;;;;6.60;2.80;;;;;;;;;;5085485;28;20442;-76
2023/03/29 08:04:57;;;;;;;7.68;3.17;;;;;;;;;;5085986;28;20063;-80
2023/03/29 08:07:31;;;;;;;8.85;2.83;;;;;;;;;;5088009;28;20040;-78
2023/03/29 08:10:23;;;;;;;4.20;2.72;;;;;;;;;;5087225;28;20052;-79
2023/03/29 08:13:06;;;;;;;5.88;2.70;;;;;;;;;;5085598;28;20502;-78
2023/03/29 08:15:49;;;;;;;7.97;3.17;;;;;;;;;;5071349;28;20055;-78
2023/03/29 08:18:31;;;;;;;5.50;3.00;;;;;;;;;;5085343;28;20044;-78
2023/03/29 08:21:04;;;;;;;7.93;3.85;;;;;;;;;;5084991;28;20060;-80
2023/03/29 08:23:34;;;;;;;8.02;2.88;;;;;;;;;;5086950;28;20059;-76
2023/03/29 08:26:20;;;;;;;7.13;2.90;;;;;;;;;;5085444;28;20067;-80
2023/03/29 08:28:51;;;;;;;5.47;2.95;;;;;;;;;;5085957;28;20059;-78
2023/03/29 08:31:24;;;;;;;7.70;2.80;;;;;;;;;;5085404;28;20056;-80
2023/03/29 08:33:55;;;;;;;4.57;2.90;;;;;;;;;;5085859;28;20052;-79
2023/03/29 08:37:02;;;;;;;6.03;2.97;;;;;;;;;;5044918;28;20541;-80
2023/03/29 08:39:43;;;;;;;8.05;3.08;;;;;;;;;;5079214;28;20408;-76
2023/03/29 08:42:57;;;;;;;4.50;2.72;;;;;;;;;;5086830;28;20048;-77
2023/03/29 08:45:55;;;;;;;4.60;2.60;;;;;;;;;;5084937;28;20542;-77
2023/03/29 08:48:44;;;;;;;7.03;3.25;;;;;;;;;;5084931;28;20048;-80
2023/03/29 08:51:45;;;;;;;3.30;2.08;;;;;;;;;;5084323;28;20055;-76
2023/03/29 08:54:24;;;;;;;7.65;3.00;;;;;;;;;;5119242;27;20044;-77
2023/03/29 08:57:44;;;;;;;5.93;2.60;;;;;;;;;;5094270;28;20115;-77
2023/03/29 09:00:39;;;;;;;5.65;3.30;;;;;;;;;;5084288;28;20056;-79
2023/03/29 09:03:37;;;;;;;6.90;3.25;;;;;;;;;;5085195;28;20059;-79
2023/03/29 09:06:21;;;;;;;7.70;2.50;;;;;;;;;;5084747;28;20072;-77
2023/03/29 09:08:58;;;;;;;4.78;2.80;;;;;;;;;;5084953;28;20529;-76
2023/03/29 09:11:44;;;;;;;6.47;2.80;;;;;;;;;;5086989;28;20051;-76
2023/03/29 09:14:42;;;;;;;6.80;2.78;;;;;;;;;;5084001;28;20423;-75
2023/03/29 09:17:22;;;;;;;5.40;2.72;;;;;;;;;;5087354;28;20427;-76
2023/03/29 09:20:30;;;;;;;5.90;2.72;;;;;;;;;;5085421;28;20051;-79
2023/03/29 09:23:12;;;;;;;14.20;3.03;;;;;;;;;;5085738;28;20059;-78
2023/03/29 09:26:47;;;;;;;11.23;3.30;;;;;;;;;;5086386;28;20055;-78
2023/03/29 09:29:50;;;;;;;8.52;2.58;;;;;;;;;;5072412;28;20048;-76
2023/03/29 09:32:50;;;;;;;11.52;3.20;;;;;;;;;;5084131;28;20066;-79
2023/03/29 09:35:38;;;;;;;7.25;3.15;;;;;;;;;;5084674;28;20044;-76
2023/03/29 09:38:12;;;;;;;8.43;3.15;;;;;;;;;;5084288;28;20529;-75
2023/03/29 09:40:49;;;;;;;5.80;2.80;;;;;;;;;;5084138;28;20056;-75
2023/03/29 09:43:36;;;;;;;7.13;3.20;;;;;;;;;;5084594;28;20419;-78
2023/03/29 09:46:44;;;;;;;6.93;3.00;;;;;;;;;;5118265;28;20056;-78
2023/03/29 09:49:22;;;;;;;6.47;2.88;;;;;;;;;;5085849;28;20056;-79
2023/03/29 09:51:58;;;;;;;8.15;2.63;;;;;;;;;;5084550;28;20519;-77
2023/03/29 09:54:29;;;;;;;6.72;3.30;;;;;;;;;;5084842;28;20414;-77
2023/03/29 09:57:05;;;;;;;9.23;3.45;;;;;;;;;;5093111;28;20405;-79
2023/03/29 09:59:36;;;;;;;5.75;2.45;;;;;;;;;;5083910;28;20087;-79
2023/03/29 10:02:10;;;;;;;5.15;2.78;;;;;;;;;;5083887;28;20052;-76
2023/03/29 10:04:42;;;;;;;12.30;3.17;;;;;;;;;;5084328;28;20442;-78
2023/03/29 10:07:19;;;;;;;8.73;2.58;;;;;;;;;;5084398;28;20089;-77
2023/03/29 10:09:55;;;;;;;7.80;3.33;;;;;;;;;;5084828;28;20067;-78
2023/03/29 10:12:27;;;;;;;6.35;3.13;;;;;;;;;;5086313;28;20032;-78
2023/03/29 10:15:00;;;;;;;6.88;2.97;;;;;;;;;;5086849;28;20048;-75
2023/03/29 10:17:39;;;;;;;7.55;3.13;;;;;;;;;;5065711;28;20055;-79
2023/03/29 10:20:15;;;;;;;9.93;2.95;;;;;;;;;;5069751;28;20036;-79
2023/03/29 10:22:54;;;;;;;9.77;2.80;;;;;;;;;;5086646;28;20075;-79
2023/03/29 10:25:31;;;;;;;8.90;3.40;;;;;;;;;;5087094;28;20036;-77
2023/03/29 10:28:13;;;;;;;4.05;3.03;;;;;;;;;;5086230;28;20534;-80
2023/03/29 10:30:51;;;;;;;5.28;2.42;;;;;;;;;;5089873;28;20040;-77
2023/03/29 10:33:24;;;;;;;7.22;3.13;;;;;;;;;;5089771;28;20052;-81
2023/03/29 10:35:57;;;;;;;7.60;2.80;;;;;;;;;;5089478;28;20082;-79
2023/03/29 10:38:29;;;;;;;7.88;3.38;;;;;;;;;;5089996;28;20044;-80
2023/03/29 10:41:09;;;;;;;5.10;3.25;;;;;;;;;;5106742;28;20044;-78
2023/03/29 10:43:48;;;;;;;11.98;3.17;;;;;;;;;;5100136;28;20441;-79
2023/03/29 10:46:31;;;;;;;5.90;2.83;;;;;;;;;;5097882;28;20439;-79
2023/03/29 10:49:08;;;;;;;10.43;2.40;;;;;;;;;;5099974;28;20039;-77
2023/03/29 10:51:45;;;;;;;8.00;3.10;;;;;;;;;;5099912;28;20048;-76
2023/03/29 10:54:20;;;;;;;7.13;3.22;;;;;;;;;;5081125;28;20048;-76
2023/03/29 10:57:00;;;;;;;8.60;2.90;;;;;;;;;;5098833;28;20040;-77
2023/03/29 10:59:30;;;;;;;8.50;2.45;;;;;;;;;;5098383;28;20047;-79
2023/03/29 11:02:18;;;;;;;13.10;4.25;;;;;;;;;;5097936;28;20044;-77
2023/03/29 11:05:19;;;;;;;7.40;2.55;;;;;;;;;;5098047;28;20044;-78
2023/03/29 11:08:04;;;;;;;12.80;2.38;;;;;;;;;;5097776;28;20048;-78
2023/03/29 11:10:55;;;;;;;8.88;2.63;;;;;;;;;;5098843;28;20039;-79
2023/03/29 11:13:50;;;;;;;10.85;2.45;;;;;;;;;;5098990;28;20054;-78
2023/03/29 11:16:32;;;;;;;8.02;2.30;;;;;;;;;;5099131;28;20039;-77
2023/03/29 11:19:30;;;;;;;6.63;2.17;;;;;;;;;;5080962;28;20055;-78
2023/03/29 11:22:23;;;;;;;8.35;1.83;;;;;;;;;;5098807;28;20506;-77
2023/03/29 11:25:26;;;;;;;4.57;1.77;;;;;;;;;;5089012;28;20502;-79
2023/03/29 11:28:25;;;;;;;7.07;2.50;;;;;;;;;;5088250;28;20399;-78
2023/03/29 11:31:04;;;;;;;5.47;2.60;;;;;;;;;;5087903;28;20048;-80
2023/03/29 11:34:02;;;;;;;7.45;2.33;;;;;;;;;;5092956;28;20046;-77
2023/03/29 11:36:56;;;;;;;7.70;2.30;;;;;;;;;;5087655;28;20044;-80
2023/03/29 11:39:46;;;;;;;6.38;2.45;;;;;;;;;;5089166;28;20067;-79
2023/03/29 11:42:40;;;;;;;9.95;2.60;;;;;;;;;;5088765;28;20044;-81
2023/03/29 11:45:16;;;;;;;6.40;3.28;;;;;;;;;;5089676;28;20621;-82
2023/03/29 11:47:48;;;;;;;9.15;2.92;;;;;;;;;;5090346;28;20052;-78
2023/03/29 11:50:29;;;;;;;6.63;2.13;;;;;;;;;;5090990;28;20510;-80
2023/03/29 11:53:10;;;;;;;7.70;4.35;;;;;;;;;;5070775;28;20052;-79
2023/03/29 11:55:42;;;;;;;9.98;2.80;;;;;;;;;;5090069;28;20048;-83
2023/03/29 11:58:30;;;;;;;5.65;1.65;;;;;;;;;;5090864;28;20551;-75
2023/03/29 12:01:14;;;;;;;3.50;1.80;;;;;;;;;;5091734;28;20048;-76
2023/03/29 12:03:53;;;;;;;7.22;2.10;;;;;;;;;;5092021;28;20044;-77
2023/03/29 12:06:42;;;;;;;5.32;1.80;;;;;;;;;;5092417;28;20520;-77
2023/03/29 12:09:48;;;;;;;4.22;1.98;;;;;;;;;;5093208;28;20390;-75
2023/03/29 12:12:43;;;;;;;6.00;1.85;;;;;;;;;;5092724;28;20051;-78
2023/03/29 12:15:23;;;;;;;8.07;2.63;;;;;;;;;;5092042;28;20044;-77
2023/03/29 12:18:00;;;;;;;8.82;2.30;;;;;;;;;;5088489;28;20055;-79
2023/03/29 12:20:39;;;;;;;4.22;2.00;;;;;;;;;;5088792;28;20372;-78
2023/03/29 12:23:15;;;;;;;21.50;14.38;;;;;;;;;;5073013;28;20048;-77
2023/03/29 12:26:04;;;;;;;6.72;3.75;;;;;;;;;;5089266;28;20418;-79
2023/03/29 12:29:12;;;;;;;6.13;1.67;;;;;;;;;;5087774;28;20423;-76
2023/03/29 12:32:19;;;;;;;4.07;1.75;;;;;;;;;;5088536;28;20518;-75
2023/03/29 12:35:36;;;;;;;14.85;6.03;;;;;;;;;;5069469;28;20434;-78
2023/03/29 12:38:31;;;;;;;6.55;2.00;;;;;;;;;;5086771;28;20056;-78
2023/03/29 12:41:22;;;;;;;7.60;2.20;;;;;;;;;;5051394;28;20053;-78
2023/03/29 12:44:16;;;;;;;9.38;1.92;;;;;;;;;;5019401;28;20421;-76
2023/03/29 12:47:01;;;;;;;8.45;2.33;;;;;;;;;;5047571;28;20045;-76
2023/03/29 12:49:37;;;;;;;7.13;2.60;;;;;;;;;;5047004;28;20071;-78
2023/03/29 12:52:23;;;;;;;10.38;2.17;;;;;;;;;;5045855;28;20554;-80
2023/03/29 12:54:59;;;;;;;13.90;5.35;;;;;;;;;;5029777;28;20048;-78
2023/03/29 12:57:59;;;;;;;9.70;2.28;;;;;;;;;;5047115;28;20053;-82
2023/03/29 13:00:44;;;;;;;4.40;2.33;;;;;;;;;;5047728;28;20542;-77
2023/03/29 13:03:48;;;;;;;7.90;2.70;;;;;;;;;;5048069;28;20412;-75
2023/03/29 13:06:34;;;;;;;7.30;2.35;;;;;;;;;;5032591;28;20508;-81
2023/03/29 13:09:29;;;;;;;4.50;1.88;;;;;;;;;;5048007;28;20052;-77
2023/03/29 13:12:11;;;;;;;6.82;2.28;;;;;;;;;;5047862;28;20048;-77
2023/03/29 13:14:49;;;;;;;5.30;1.98;;;;;;;;;;5046686;28;20056;-77
2023/03/29 13:17:54;;;;;;;5.07;1.90;;;;;;;;;;5048289;28;20041;-77
2023/03/29 13:20:52;;;;;;;5.97;1.92;;;;;;;;;;5012291;28;20065;-75
2023/03/29 13:23:30;;;;;;;6.05;2.08;;;;;;;;;;5047266;28;20049;-78
2023/03/29 13:26:23;;;;;;;6.28;1.83;;;;;;;;;;5047435;28;20052;-80
2023/03/29 13:29:08;;;;;;;6.18;1.90;;;;;;;;;;5047361;28;20033;-78
2023/03/29 13:31:59;;;;;;;6.97;2.05;;;;;;;;;;5047012;28;20045;-76
2023/03/29 13:34:47;;;;;;;8.55;2.22;;;;;;;;;;5046994;28;20041;-78
2023/03/29 13:37:19;;;;;;;5.47;2.00;;;;;;;;;;5049128;28;20213;-76
2023/03/29 13:39:52;;;;;;;6.35;1.95;;;;;;;;;;5065284;28;20056;-76
2023/03/29 13:42:40;;;;;;;5.78;1.92;;;;;;;;;;5067460;28;20631;-76
2023/03/29 13:45:29;;;;;;;7.97;1.83;;;;;;;;;;5066377;28;20048;-76
2023/03/29 13:48:04;;;;;;;5.22;2.00;;;;;;;;;;5067468;28;20052;-77
2023/03/29 13:50:36;;;;;;;10.65;2.05;;;;;;;;;;5067485;28;20044;-78
2023/03/29 13:53:20;;;;;;;6.22;2.67;;;;;;;;;;5067373;28;20044;-80
2023/03/29 13:55:54;;;;;;;4.55;1.63;;;;;;;;;;5066838;28;20049;-79
2023/03/29 13:58:56;;;;;;;6.18;1.98;;;;;;;;;;5066404;28;20053;-77
2023/03/29 14:02:01;;;;;;;5.10;1.73;;;;;;;;;;5063624;28;20045;-77
2023/03/29 14:04:45;;;;;;;6.07;1.83;;;;;;;;;;5040201;28;20051;-81
2023/03/29 14:07:20;;;;;;;5.47;1.98;;;;;;;;;;5071000;28;20037;-77
2023/03/29 14:09:54;;;;;;;6.88;2.00;;;;;;;;;;5070868;28;20040;-76
2023/03/29 14:12:30;;;;;;;7.55;1.98;;;;;;;;;;5070528;28;20119;-77
2023/03/29 14:15:03;;;;;;;5.53;1.90;;;;;;;;;;5070950;28;20040;-78
2023/03/29 14:17:36;;;;;;;3.85;1.60;;;;;;;;;;5070834;28;20048;-78
2023/03/29 14:20:08;;;;;;;4.70;1.60;;;;;;;;;;5069936;28;20046;-75
2023/03/29 14:22:43;;;;;;;5.88;1.92;;;;;;;;;;5069136;28;20530;-77
2023/03/29 14:25:20;;;;;;;3.08;1.73;;;;;;;;;;5069887;28;20048;-78
2023/03/29 14:27:50;;;;;;;5.82;2.03;;;;;;;;;;5069345;28;20419;-75
2023/03/29 14:30:26;;;;;;;4.03;1.92;;;;;;;;;;5069953;28;20040;-77
2023/03/29 14:32:57;;;;;;;3.28;1.60;;;;;;;;;;5069035;28;20063;-73
2023/03/29 14:35:31;;;;;;;4.28;1.90;;;;;;;;;;5070443;28;20059;-78
2023/03/29 14:38:02;;;;;;;5.35;1.95;;;;;;;;;;5069915;28;20048;-78
2023/03/29 14:40:34;;;;;;;5.22;2.03;;;;;;;;;;5082370;28;20059;-79
2023/03/29 14:43:07;;;;;;;7.28;1.90;;;;;;;;;;5091612;28;20044;-76
2023/03/29 14:45:38;;;;;;;6.80;1.77;;;;;;;;;;5090281;28;20051;-78
2023/03/29 14:48:12;;;;;;;8.30;2.00;;;;;;;;;;5089625;28;20059;-75
2023/03/29 14:50:46;;;;;;;5.47;1.98;;;;;;;;;;5089184;28;20052;-76
2023/03/29 14:53:19;;;;;;;11.82;1.90;;;;;;;;;;5089516;28;20122;-78
2023/03/29 14:55:52;;;;;;;10.05;2.22;;;;;;;;;;5088923;28;20565;-76
2023/03/29 14:58:36;;;;;;;11.25;2.00;;;;;;;;;;5072328;28;20048;-78
2023/03/29 15:01:17;;;;;;;4.57;1.92;;;;;;;;;;5086857;28;20059;-75
2023/03/29 15:03:55;;;;;;;6.22;1.85;;;;;;;;;;5088420;28;20056;-76
2023/03/29 15:06:27;;;;;;;10.18;3.15;;;;;;;;;;5089484;28;20885;-79
2023/03/29 15:09:00;;;;;;;5.95;1.80;;;;;;;;;;5090282;28;20047;-78
2023/03/29 15:11:38;;;;;;;15.55;2.45;;;;;;;;;;5069597;28;20408;-77
2023/03/29 15:14:15;;;;;;;5.30;2.00;;;;;;;;;;5089143;28;20036;-78
2023/03/29 15:16:48;;;;;;;8.50;2.15;;;;;;;;;;5088905;28;20055;-76
2023/03/29 15:19:25;;;;;;;7.75;2.85;;;;;;;;;;5089003;28;20043;-77
2023/03/29 15:21:56;;;;;;;9.65;2.50;;;;;;;;;;5089301;28;20379;-79
2023/03/29 15:24:32;;;;;;;8.80;2.10;;;;;;;;;;5088926;28;20062;-79
2023/03/29 15:27:24;;;;;;;3.92;2.13;;;;;;;;;;5089375;28;20051;-77
2023/03/29 15:30:03;;;;;;;3.30;1.70;;;;;;;;;;5088740;28;20059;-79
2023/03/29 15:32:37;;;;;;;7.28;2.03;;;;;;;;;;5089991;28;20044;-78
2023/03/29 15:35:24;;;;;;;9.70;2.00;;;;;;;;;;5088902;28;20499;-78
2023/03/29 15:37:55;;;;;;;10.32;2.10;;;;;;;;;;5088409;28;20054;-78
2023/03/29 15:40:26;;;;;;;4.25;1.80;;;;;;;;;;5088115;28;20059;-80
2023/03/29 15:42:57;;;;;;;9.55;1.98;;;;;;;;;;5088246;28;20430;-79
2023/03/29 15:45:28;;;;;;;6.47;1.85;;;;;;;;;;5087690;28;20052;-78
2023/03/29 15:48:03;;;;;;;6.15;1.90;;;;;;;;;;5087587;28;20491;-77
2023/03/29 15:50:34;;;;;;;5.82;2.00;;;;;;;;;;5088733;28;20522;-80
2023/03/29 15:53:04;;;;;;;6.32;1.98;;;;;;;;;;5070562;28;20652;-79
2023/03/29 15:55:50;;;;;;;7.97;2.33;;;;;;;;;;5088414;28;20044;-81
2023/03/29 15:58:26;;;;;;;5.00;2.03;;;;;;;;;;5088719;28;20150;-80